Time;durP1;ratioP1;P1;durP2;ratioP2;P2;SDS_P1;SDS_P2;PMS_P1;PMS_P2;Temp;Humidity;BMP_temperature;BMP_pressure;BME280_temperature;BME280_humidity;BME280_pressure;Samples;Min_cycle;Max_cycle;Signal;HPM_P1;HPM_P2
2022/02/05 00:08:15;;;;;;;9.00;2.08;;;2.70;99.90;;;;;;5076901;28;20062;-54
2022/02/05 00:38:26;;;;;;;7.82;1.95;;;2.60;99.90;;;;;;5049147;28;20040;-50
2022/02/05 00:40:59;;;;;;;6.18;1.63;;;2.60;99.90;;;;;;5078016;28;20073;-55
2022/02/05 00:43:27;;;;;;;7.13;1.88;;;2.60;99.90;;;;;;5075702;28;20012;-52
2022/02/05 00:45:55;;;;;;;5.50;1.80;;;2.60;99.90;;;;;;5075276;28;20017;-51
2022/02/05 00:48:22;;;;;;;6.55;1.88;;;2.60;99.90;;;;;;5076700;28;20674;-56
2022/02/05 00:50:56;;;;;;;4.68;1.77;;;2.70;99.90;;;;;;5077015;28;20016;-51
2022/02/05 00:53:32;;;;;;;7.72;1.90;;;2.70;99.90;;;;;;5076400;28;20017;-53
2022/02/05 00:56:48;;;;;;;8.25;1.40;;;2.70;99.90;;;;;;5076912;28;20059;-54
2022/02/05 00:58:49;;;;;;;7.60;1.92;;;2.70;99.90;;;;;;5072439;28;20533;-53
2022/02/05 01:01:15;;;;;;;6.50;1.50;;;2.70;99.90;;;;;;5076790;28;20020;-54
2022/02/05 01:03:41;;;;;;;3.17;1.13;;;2.70;99.90;;;;;;5075599;28;20036;-54
2022/02/05 01:06:08;;;;;;;1.63;0.90;;;2.70;99.90;;;;;;5076685;28;20081;-52
2022/02/05 01:08:35;;;;;;;2.78;0.90;;;2.60;99.90;;;;;;5078863;28;20029;-53
2022/02/05 01:11:00;;;;;;;3.17;1.30;;;2.60;99.90;;;;;;5079441;28;20107;-56
2022/02/05 01:13:28;;;;;;;4.60;1.33;;;2.40;99.90;;;;;;5078614;28;20119;-56
2022/02/05 01:18:29;;;;;;;3.20;0.73;;;2.40;99.90;;;;;;5075973;28;20040;-55
2022/02/05 01:23:38;;;;;;;2.25;0.85;;;2.40;99.90;;;;;;5078830;28;20074;-55
2022/02/05 01:26:14;;;;;;;6.47;1.20;;;2.40;99.90;;;;;;5079286;28;20031;-52
2022/02/05 01:28:42;;;;;;;5.47;1.40;;;2.40;99.90;;;;;;5079096;28;20082;-57
2022/02/05 01:31:07;;;;;;;2.60;1.50;;;2.40;99.90;;;;;;5079708;28;20027;-53
2022/02/05 01:55:36;;;;;;;3.28;0.77;;;2.50;99.90;;;;;;5079678;28;20514;-53
2022/02/05 01:57:56;;;;;;;1.38;0.90;;;2.40;99.90;;;;;;5070885;28;20120;-55
2022/02/05 02:11:57;;;;;;;3.72;1.50;;;2.20;99.90;;;;;;5040923;28;20119;-56
2022/02/05 02:22:16;;;;;;;2.80;1.67;;;2.30;99.90;;;;;;5039593;28;20040;-56
2022/02/05 02:27:27;;;;;;;6.45;2.20;;;2.30;99.90;;;;;;5040883;28;20036;-56
2022/02/05 02:30:22;;;;;;;5.20;2.10;;;2.30;99.90;;;;;;5040903;28;20029;-53
2022/02/05 02:32:47;;;;;;;8.85;1.98;;;2.30;99.90;;;;;;5039238;28;20045;-54
2022/02/05 02:35:18;;;;;;;6.43;1.95;;;2.40;99.90;;;;;;5039738;28;20473;-56
2022/02/05 02:40:27;;;;;;;8.10;1.92;;;2.40;99.90;;;;;;5040725;28;20099;-56
2022/02/05 02:43:00;;;;;;;6.85;1.85;;;2.40;99.90;;;;;;5040262;28;20079;-53
2022/02/05 02:45:25;;;;;;;3.45;1.80;;;2.50;99.90;;;;;;5022534;28;20040;-54
2022/02/05 02:47:51;;;;;;;3.90;1.20;;;2.50;99.90;;;;;;5039674;28;20033;-53
2022/02/05 02:58:05;;;;;;;5.28;1.40;;;2.50;99.90;;;;;;5040132;28;20740;-56
2022/02/05 03:00:31;;;;;;;3.13;1.35;;;2.40;99.90;;;;;;5039897;28;20116;-57
2022/02/05 03:02:57;;;;;;;1.15;0.45;;;2.20;99.90;;;;;;5040501;28;20400;-57
2022/02/05 03:05:23;;;;;;;5.65;1.00;;;2.10;99.90;;;;;;5021369;28;20048;-58
2022/02/05 03:07:49;;;;;;;2.83;0.77;;;2.00;99.90;;;;;;5040268;28;20037;-58
2022/02/05 03:10:15;;;;;;;4.00;0.98;;;1.90;99.90;;;;;;5023084;28;20028;-55
2022/02/05 03:12:43;;;;;;;2.45;1.20;;;1.90;99.90;;;;;;5040277;28;20030;-58
2022/02/05 03:15:13;;;;;;;1.35;0.77;;;1.90;99.90;;;;;;5022900;28;20017;-59
2022/02/05 03:17:42;;;;;;;2.80;0.95;;;1.70;99.90;;;;;;5040948;28;20507;-55
2022/02/05 03:20:08;;;;;;;5.72;0.93;;;1.70;99.90;;;;;;5040517;28;20021;-57
2022/02/05 03:22:34;;;;;;;1.70;0.40;;;1.60;99.90;;;;;;5021838;28;20033;-58
2022/02/05 03:25:00;;;;;;;3.70;0.68;;;1.40;99.90;;;;;;5022125;28;20040;-58
2022/02/05 03:27:26;;;;;;;2.05;0.88;;;1.40;99.90;;;;;;5021839;28;20396;-59
2022/02/05 03:29:52;;;;;;;2.95;0.80;;;1.30;99.90;;;;;;5039595;28;20079;-59
2022/02/05 03:32:20;;;;;;;1.17;0.73;;;1.30;99.90;;;;;;5039303;28;20033;-57
2022/02/05 03:34:47;;;;;;;2.10;1.20;;;1.30;99.90;;;;;;5039553;28;20043;-58
2022/02/05 03:37:13;;;;;;;3.42;1.13;;;1.20;99.90;;;;;;5022346;28;20021;-59
2022/02/05 03:39:39;;;;;;;1.60;0.60;;;1.20;99.90;;;;;;5022468;28;20124;-58
2022/02/05 03:42:05;;;;;;;4.25;0.75;;;1.20;99.90;;;;;;5039259;28;20065;-58
2022/02/05 03:44:32;;;;;;;1.08;0.60;;;1.20;99.90;;;;;;5020899;28;20079;-55
2022/02/05 03:46:58;;;;;;;3.30;0.65;;;1.20;99.90;;;;;;5038693;28;20036;-58
2022/02/05 03:49:23;;;;;;;0.85;0.63;;;1.20;99.90;;;;;;5038866;28;20109;-58
2022/02/05 03:51:49;;;;;;;1.38;0.82;;;1.20;99.90;;;;;;5038661;28;20373;-57
2022/02/05 03:54:18;;;;;;;4.43;1.40;;;1.20;99.90;;;;;;5038628;28;20060;-56
2022/02/05 03:56:44;;;;;;;4.05;0.80;;;1.20;99.90;;;;;;5020937;28;20079;-56
2022/02/05 03:59:10;;;;;;;1.90;0.68;;;1.20;99.90;;;;;;5038622;28;20069;-58
2022/02/05 04:01:35;;;;;;;2.30;0.90;;;1.20;99.90;;;;;;5039007;28;20111;-55
2022/02/05 04:04:01;;;;;;;5.28;0.98;;;1.20;99.90;;;;;;5038638;28;20041;-56
2022/02/05 04:06:27;;;;;;;2.10;0.93;;;1.20;99.90;;;;;;5038201;28;20460;-56
2022/02/05 04:08:56;;;;;;;4.53;1.35;;;1.20;99.90;;;;;;5039592;28;20039;-54
2022/02/05 04:11:35;;;;;;;3.92;1.17;;;1.20;99.90;;;;;;5021143;28;20635;-56
2022/02/05 04:16:48;;;;;;;4.00;1.05;;;1.20;99.90;;;;;;5039551;28;20036;-56
2022/02/05 04:19:15;;;;;;;3.88;1.00;;;1.20;99.90;;;;;;5039674;28;20109;-54
2022/02/05 04:21:41;;;;;;;2.78;0.77;;;1.20;99.90;;;;;;5022048;28;20086;-57
2022/02/05 04:24:08;;;;;;;3.72;1.15;;;1.20;99.90;;;;;;5037867;28;20030;-54
2022/02/05 04:26:34;;;;;;;3.55;0.95;;;1.20;99.90;;;;;;5037801;28;20029;-54
2022/02/05 04:29:00;;;;;;;5.22;0.73;;;1.20;99.90;;;;;;5038587;28;20024;-57
2022/02/05 04:31:25;;;;;;;5.13;1.40;;;1.20;99.90;;;;;;5021278;28;20048;-52
2022/02/05 04:33:51;;;;;;;2.33;0.43;;;1.20;99.90;;;;;;5038126;28;20481;-58
2022/02/05 04:36:18;;;;;;;5.55;0.82;;;1.10;99.90;;;;;;5038396;28;20534;-57
2022/02/05 04:38:47;;;;;;;0.85;0.65;;;1.10;99.90;;;;;;5020750;28;20143;-54
2022/02/05 04:41:20;;;;;;;3.05;1.00;;;1.10;99.90;;;;;;5021148;28;20025;-57
2022/02/05 04:59:49;;;;;;;3.70;0.75;;;1.00;99.90;;;;;;5042521;28;20024;-56
2022/02/05 05:20:14;;;;;;;3.85;0.75;;;1.00;99.90;;;;;;5041878;28;20429;-53
2022/02/05 05:22:39;;;;;;;3.38;1.35;;;1.00;99.90;;;;;;5041286;28;20029;-55
2022/02/05 05:25:06;;;;;;;7.43;1.10;;;1.00;99.90;;;;;;5041888;28;20028;-53
2022/02/05 05:27:32;;;;;;;2.45;1.25;;;0.90;99.90;;;;;;5041187;28;20409;-54
2022/02/05 05:29:58;;;;;;;2.50;0.63;;;0.90;99.90;;;;;;5041134;28;20028;-54
2022/02/05 05:32:23;;;;;;;6.53;1.23;;;0.90;99.90;;;;;;5041271;28;20029;-51
2022/02/05 05:34:49;;;;;;;4.25;1.35;;;0.90;99.90;;;;;;5041221;28;20512;-52
2022/02/05 05:37:18;;;;;;;7.30;1.20;;;0.90;99.90;;;;;;5023540;28;20025;-55
2022/02/05 05:39:45;;;;;;;2.67;1.00;;;0.90;99.90;;;;;;5041698;28;20025;-54
2022/02/05 05:42:15;;;;;;;3.90;1.00;;;0.90;99.90;;;;;;5040254;28;20400;-54
2022/02/05 05:45:15;;;;;;;6.22;1.38;;;0.90;99.90;;;;;;5040769;28;20219;-53
2022/02/05 05:47:53;;;;;;;2.28;0.90;;;0.90;99.90;;;;;;5041677;28;20515;-53
2022/02/05 05:53:00;;;;;;;7.47;1.60;;;0.90;99.90;;;;;;5040949;28;20104;-54
2022/02/05 05:55:26;;;;;;;4.65;1.10;;;0.90;99.90;;;;;;5042219;28;20112;-52
2022/02/05 05:57:53;;;;;;;4.50;1.13;;;0.90;99.90;;;;;;5024308;28;20554;-52
2022/02/05 06:00:18;;;;;;;2.17;1.00;;;0.90;99.90;;;;;;5022479;28;20067;-54
2022/02/05 06:02:44;;;;;;;6.57;1.40;;;0.90;99.90;;;;;;5023430;28;20033;-52
2022/02/05 06:05:10;;;;;;;5.00;1.10;;;0.90;99.90;;;;;;5041667;28;20032;-54
2022/02/05 06:07:35;;;;;;;3.42;1.20;;;0.90;99.90;;;;;;5023528;28;20036;-52
2022/02/05 06:10:01;;;;;;;5.13;0.90;;;0.90;99.90;;;;;;5042058;28;20017;-54
2022/02/05 06:12:26;;;;;;;4.78;1.58;;;0.90;99.90;;;;;;5041209;28;20078;-54
2022/02/05 06:14:52;;;;;;;9.98;1.67;;;0.90;99.90;;;;;;5040166;28;20013;-51
2022/02/05 06:17:24;;;;;;;4.55;1.05;;;0.80;99.90;;;;;;5040303;28;20481;-52
2022/02/05 06:19:49;;;;;;;3.15;1.00;;;0.90;99.90;;;;;;5040747;28;20331;-53
2022/02/05 06:22:15;;;;;;;7.00;1.30;;;0.80;99.90;;;;;;5040368;28;20507;-54
2022/02/05 06:24:40;;;;;;;6.95;1.17;;;0.80;99.90;;;;;;5039796;28;20547;-51
2022/02/05 06:27:07;;;;;;;10.20;1.33;;;0.80;99.90;;;;;;5040849;28;20033;-50
2022/02/05 06:29:34;;;;;;;5.03;1.00;;;0.80;99.90;;;;;;5040488;28;20021;-50
2022/02/05 06:32:00;;;;;;;3.90;0.85;;;0.80;99.90;;;;;;5039801;28;20378;-54
2022/02/05 06:34:25;;;;;;;7.10;0.98;;;0.80;99.90;;;;;;5040788;28;20029;-52
2022/02/05 06:36:51;;;;;;;3.03;0.80;;;0.80;99.90;;;;;;5040703;28;20079;-52
2022/02/05 06:39:17;;;;;;;2.58;0.85;;;0.80;99.90;;;;;;5040648;28;20033;-54
2022/02/05 06:41:43;;;;;;;4.78;1.60;;;0.80;99.90;;;;;;5039459;28;20395;-53
2022/02/05 06:44:09;;;;;;;4.03;1.35;;;0.80;99.90;;;;;;5021501;28;20079;-52
2022/02/05 06:46:34;;;;;;;9.35;1.00;;;0.80;99.90;;;;;;5039983;28;20060;-53
2022/02/05 06:49:00;;;;;;;5.05;1.05;;;0.80;99.90;;;;;;5040654;28;20025;-52
2022/02/05 06:51:26;;;;;;;5.07;0.90;;;0.80;99.90;;;;;;5040341;28;20388;-55
2022/02/05 06:53:51;;;;;;;5.18;0.80;;;0.80;99.90;;;;;;5022740;28;20014;-53
2022/02/05 06:56:17;;;;;;;9.50;0.95;;;0.80;99.90;;;;;;5040402;28;20546;-51
2022/02/05 06:58:43;;;;;;;5.43;1.00;;;0.80;99.90;;;;;;5040494;28;20036;-51
2022/02/05 07:01:08;;;;;;;11.00;1.40;;;0.80;99.90;;;;;;5040083;28;20127;-51
2022/02/05 07:03:34;;;;;;;4.07;0.98;;;0.80;99.90;;;;;;5039467;28;20103;-55
2022/02/05 07:06:00;;;;;;;3.70;1.05;;;0.80;99.90;;;;;;5038946;28;20037;-52
2022/02/05 07:08:25;;;;;;;4.97;1.13;;;0.80;99.90;;;;;;5021151;28;20033;-50
2022/02/05 07:10:52;;;;;;;6.30;1.58;;;0.80;99.90;;;;;;5040694;28;20511;-52
2022/02/05 07:13:19;;;;;;;5.82;1.38;;;0.80;99.90;;;;;;5040119;28;20021;-49
2022/02/05 07:16:05;;;;;;;6.22;0.88;;;0.90;99.90;;;;;;5039613;28;20022;-51
2022/02/05 07:23:42;;;;;;;5.03;1.52;;;0.90;99.90;;;;;;5040616;28;20029;-51
2022/02/05 07:31:37;;;;;;;5.35;0.75;;;0.90;99.90;;;;;;5040040;28;20040;-53
2022/02/05 07:34:03;;;;;;;5.60;1.42;;;0.90;99.90;;;;;;5021592;28;20025;-51
2022/02/05 07:36:28;;;;;;;5.47;1.30;;;1.00;99.90;;;;;;5038219;28;20079;-52
2022/02/05 07:38:54;;;;;;;4.10;1.52;;;1.00;99.90;;;;;;5022951;28;20029;-48
2022/02/05 07:41:20;;;;;;;4.53;1.23;;;1.10;99.90;;;;;;5039766;28;20030;-53
2022/02/05 07:43:46;;;;;;;8.55;1.75;;;1.10;99.90;;;;;;5038224;28;20037;-52
2022/02/05 07:46:13;;;;;;;10.20;2.03;;;1.20;99.90;;;;;;5039139;28;20028;-51
2022/02/05 07:48:39;;;;;;;4.88;0.95;;;1.20;99.90;;;;;;5038614;28;20080;-51
2022/02/05 07:51:05;;;;;;;7.10;1.58;;;1.20;99.90;;;;;;5020854;28;20074;-53
2022/02/05 07:53:32;;;;;;;4.10;1.13;;;1.20;99.90;;;;;;5038477;28;20044;-52
2022/02/05 07:55:59;;;;;;;6.45;1.05;;;1.20;99.90;;;;;;5039041;28;20404;-52
2022/02/05 07:58:24;;;;;;;6.03;1.45;;;1.30;99.90;;;;;;5039260;28;20497;-49
2022/02/05 08:00:52;;;;;;;7.95;1.50;;;1.30;99.90;;;;;;5004677;28;20037;-52
2022/02/05 08:03:17;;;;;;;5.78;1.27;;;1.30;99.90;;;;;;5064873;22;20043;31
2022/02/05 08:05:43;;;;;;;10.73;1.85;;;1.30;99.90;;;;;;5085704;28;20048;-51
2022/02/05 08:08:13;;;;;;;5.55;1.38;;;1.40;99.90;;;;;;5088642;28;20077;-51
2022/02/05 08:10:47;;;;;;;10.23;1.80;;;1.40;99.90;;;;;;5088096;28;20509;-53
2022/02/05 08:13:19;;;;;;;6.68;1.73;;;1.40;99.90;;;;;;5087829;28;20024;-52
2022/02/05 08:15:51;;;;;;;12.60;2.20;;;1.40;99.90;;;;;;5049629;28;20025;-50
2022/02/05 08:18:17;;;;;;;17.42;2.53;;;1.50;99.90;;;;;;5072494;28;20117;-51
2022/02/05 08:20:43;;;;;;;7.15;2.15;;;1.50;99.90;;;;;;5072502;28;20028;-51
2022/02/05 08:23:08;;;;;;;10.35;2.42;;;1.60;99.90;;;;;;5069846;28;20040;-54
2022/02/05 08:25:34;;;;;;;11.43;2.45;;;1.70;99.90;;;;;;5053850;28;20024;-52
2022/02/05 08:27:59;;;;;;;10.35;1.50;;;1.70;99.90;;;;;;5071757;28;20025;-50
2022/02/05 08:30:25;;;;;;;12.25;1.90;;;1.70;99.90;;;;;;5055365;28;20534;-49
2022/02/05 08:32:51;;;;;;;12.02;1.77;;;1.70;99.90;;;;;;5071890;28;20060;-50
2022/02/05 08:35:19;;;;;;;6.07;2.40;;;1.80;99.90;;;;;;5071557;28;20028;-52
2022/02/05 08:37:47;;;;;;;8.18;2.00;;;1.80;99.90;;;;;;5072097;28;20100;-51
2022/02/05 08:40:13;;;;;;;8.40;2.17;;;1.90;99.90;;;;;;5072202;28;20025;-50
2022/02/05 08:42:40;;;;;;;8.75;2.65;;;1.90;99.90;;;;;;5072056;28;20475;-52
2022/02/05 08:45:07;;;;;;;5.20;1.85;;;2.00;99.90;;;;;;5053339;28;20032;-51
2022/02/05 08:47:33;;;;;;;10.18;2.15;;;2.00;99.90;;;;;;5071632;28;20439;-51
2022/02/05 08:49:59;;;;;;;7.80;2.15;;;2.10;99.90;;;;;;5072002;28;20016;-53
2022/02/05 08:52:25;;;;;;;11.57;2.63;;;2.20;99.90;;;;;;5071669;28;20074;-51
2022/02/05 08:54:51;;;;;;;12.07;2.78;;;2.20;99.90;;;;;;5071851;28;20526;-52
2022/02/05 08:57:16;;;;;;;14.30;2.22;;;2.30;99.90;;;;;;5071866;28;20024;-54
2022/02/05 09:00:00;;;;;;;9.60;2.80;;;2.40;99.90;;;;;;5071894;28;20026;-51
2022/02/05 09:05:14;;;;;;;10.90;2.63;;;2.50;99.90;;;;;;5070251;28;20162;-53
2022/02/05 09:07:41;;;;;;;10.43;3.53;;;2.60;99.90;;;;;;5071942;28;20028;-51
2022/02/05 09:15:07;;;;;;;14.02;2.75;;;2.60;99.90;;;;;;5069465;28;20029;-52
2022/02/05 09:17:33;;;;;;;8.15;2.80;;;2.70;99.90;;;;;;5071219;28;20484;-51
2022/02/05 09:19:58;;;;;;;21.38;3.75;;;2.70;99.90;;;;;;5070756;28;20107;-52
2022/02/05 09:22:27;;;;;;;12.23;3.47;;;2.80;99.90;;;;;;5071454;28;20120;-51
2022/02/05 09:24:52;;;;;;;13.93;2.80;;;2.80;99.90;;;;;;5070384;28;20025;-52
2022/02/05 09:27:19;;;;;;;12.13;2.42;;;2.80;99.90;;;;;;5071363;28;20478;-50
2022/02/05 09:30:04;;;;;;;14.68;3.13;;;2.80;99.90;;;;;;5070923;28;20017;-52
2022/02/05 09:32:30;;;;;;;5.70;1.98;;;2.80;99.90;;;;;;5070318;28;20104;-53
2022/02/05 09:34:55;;;;;;;10.23;2.08;;;2.80;99.90;;;;;;5059398;28;20455;-54
2022/02/05 09:37:21;;;;;;;8.98;1.83;;;3.00;99.90;;;;;;5071563;28;20070;-51
2022/02/05 09:39:47;;;;;;;8.25;2.28;;;3.00;99.90;;;;;;5071414;28;20519;-54
2022/02/05 09:42:14;;;;;;;9.73;2.78;;;3.00;99.90;;;;;;5070986;28;20147;-51
2022/02/05 09:44:40;;;;;;;11.77;2.55;;;3.00;99.90;;;;;;5070620;28;20025;-52
2022/02/05 09:47:06;;;;;;;13.02;2.50;;;3.00;99.90;;;;;;5071263;28;20112;-50
2022/02/05 09:49:32;;;;;;;7.80;2.53;;;3.00;99.90;;;;;;5071225;28;20039;-51
2022/02/05 09:52:10;;;;;;;12.27;2.72;;;2.90;99.90;;;;;;5071268;28;20193;-55
2022/02/05 09:54:38;;;;;;;5.53;1.92;;;3.10;99.90;;;;;;5070877;28;20107;-52
2022/02/05 09:57:04;;;;;;;13.10;2.92;;;3.10;99.90;;;;;;5071375;28;20036;-53
2022/02/05 09:59:44;;;;;;;10.00;2.95;;;3.20;99.90;;;;;;5070061;28;20835;-53
2022/02/05 10:02:22;;;;;;;11.18;2.70;;;3.30;99.90;;;;;;5070188;28;20527;-52
2022/02/05 10:05:07;;;;;;;10.05;2.30;;;3.40;99.90;;;;;;5070301;28;20203;-52
2022/02/05 10:07:36;;;;;;;8.57;2.30;;;3.50;99.90;;;;;;5052156;28;20515;-55
2022/02/05 10:10:04;;;;;;;9.90;2.45;;;3.50;99.90;;;;;;5070035;28;20108;-53
2022/02/05 10:12:30;;;;;;;16.30;3.05;;;3.60;99.90;;;;;;5070244;28;20028;-52
2022/02/05 10:14:58;;;;;;;10.05;1.48;;;3.70;99.90;;;;;;5070904;28;20104;-52
2022/02/05 10:17:56;;;;;;;9.40;2.30;;;3.80;99.90;;;;;;5052031;28;20514;-55
2022/02/05 10:20:21;;;;;;;13.98;2.47;;;3.90;99.90;;;;;;5026442;28;20044;-52
2022/02/05 10:22:47;;;;;;;12.55;2.70;;;3.90;99.90;;;;;;5069721;28;20047;-53
2022/02/05 10:25:24;;;;;;;9.63;2.50;;;4.00;99.90;;;;;;5070608;28;20048;-53
2022/02/05 10:27:51;;;;;;;7.15;2.35;;;4.00;99.90;;;;;;5069981;28;20452;-54
2022/02/05 10:30:24;;;;;;;8.88;1.70;;;4.00;99.90;;;;;;5070431;28;20021;-51
2022/02/05 10:33:03;;;;;;;10.10;2.38;;;4.00;99.90;;;;;;5070335;28;20052;-54
2022/02/05 10:40:43;;;;;;;9.95;1.90;;;4.30;99.90;;;;;;5069581;28;20067;-53
2022/02/05 10:43:10;;;;;;;8.07;1.95;;;4.40;99.90;;;;;;5070066;28;20024;-55
2022/02/05 10:45:43;;;;;;;13.27;2.50;;;4.50;99.90;;;;;;5069390;28;20032;-54
2022/02/05 10:48:10;;;;;;;9.50;2.10;;;4.50;99.90;;;;;;5069835;28;20028;-53
2022/02/05 10:50:36;;;;;;;12.52;2.15;;;4.60;99.90;;;;;;5069837;28;20133;-54
2022/02/05 10:53:17;;;;;;;10.65;2.65;;;4.60;99.90;;;;;;5069611;28;20032;-53
2022/02/05 11:07:04;;;;;;;7.68;2.42;;;4.90;99.90;;;;;;5069260;28;20043;-53
2022/02/05 11:09:29;;;;;;;11.98;2.47;;;4.90;99.90;;;;;;5051863;28;20472;-55
2022/02/05 11:20:22;;;;;;;9.30;2.17;;;5.00;99.90;;;;;;5068166;28;20039;-52
2022/02/05 11:22:57;;;;;;;11.82;2.28;;;5.00;99.90;;;;;;5051844;28;20162;-53
2022/02/05 11:25:27;;;;;;;10.57;2.58;;;5.00;99.90;;;;;;5068789;28;20025;-53
2022/02/05 11:27:54;;;;;;;8.23;2.45;;;5.10;99.90;;;;;;5068916;28;20028;-50
2022/02/05 11:30:25;;;;;;;11.77;2.35;;;5.10;99.90;;;;;;5068629;28;20047;-51
2022/02/05 11:32:51;;;;;;;13.27;2.40;;;5.10;99.90;;;;;;5068335;28;20502;-55
2022/02/05 11:35:29;;;;;;;10.68;2.05;;;5.10;99.90;;;;;;5068471;28;20029;-51
2022/02/05 11:37:59;;;;;;;9.15;2.28;;;5.10;99.90;;;;;;5057820;28;20055;-52
2022/02/05 11:40:43;;;;;;;7.20;2.10;;;5.10;99.90;;;;;;5068087;28;20159;-52
2022/02/05 11:43:15;;;;;;;6.05;2.25;;;5.00;99.90;;;;;;5067216;28;20453;-53
2022/02/05 11:45:41;;;;;;;12.02;3.08;;;5.00;99.90;;;;;;5068375;28;20161;-54
2022/02/05 11:48:38;;;;;;;19.33;3.03;;;5.00;99.90;;;;;;5068213;28;20046;-55
2022/02/05 11:51:23;;;;;;;;;;;5.00;99.90;;;;;;5067257;28;20780;-52
2022/02/05 11:53:58;;;;;;;15.00;2.88;;;5.00;99.90;;;;;;5068267;28;19908;-52
2022/02/05 11:59:31;;;;;;;10.13;2.30;;;5.00;99.90;;;;;;5067743;28;20017;-56
2022/02/05 12:02:17;;;;;;;9.23;2.53;;;5.00;99.90;;;;;;5067907;28;20028;-54
2022/02/05 12:04:43;;;;;;;11.02;2.90;;;4.90;99.90;;;;;;5068326;28;20036;-52
2022/02/05 12:07:11;;;;;;;11.20;2.85;;;4.90;99.90;;;;;;5067180;28;20060;-54
2022/02/05 12:09:42;;;;;;;9.00;2.22;;;5.00;99.90;;;;;;5068014;28;20013;-51
2022/02/05 12:12:23;;;;;;;9.82;2.55;;;5.00;99.90;;;;;;5068183;28;20369;-54
2022/02/05 12:15:13;;;;;;;9.23;3.63;;;5.10;99.90;;;;;;5068645;28;20020;-53
2022/02/05 12:20:50;;;;;;;11.07;1.85;;;5.20;99.90;;;;;;5068873;28;20027;-51
2022/02/05 12:25:56;;;;;;;13.88;4.10;;;5.30;99.90;;;;;;5069026;28;20027;-53
2022/02/05 12:28:42;;;;;;;6.18;2.45;;;5.40;99.90;;;;;;5068973;28;20064;-52
2022/02/05 12:31:17;;;;;;;10.82;2.83;;;5.30;99.90;;;;;;5068322;28;20020;-52
2022/02/05 12:33:49;;;;;;;9.98;2.42;;;5.30;99.90;;;;;;5050521;28;20027;-54
2022/02/05 12:36:36;;;;;;;6.78;2.38;;;5.30;99.90;;;;;;5067968;28;20029;-51
2022/02/05 12:39:10;;;;;;;12.25;6.18;;;5.30;99.90;;;;;;5068171;28;20024;-53
2022/02/05 12:41:37;;;;;;;11.48;3.22;;;5.30;99.90;;;;;;5068799;28;20028;-53
2022/02/05 12:44:05;;;;;;;9.07;3.33;;;5.30;99.90;;;;;;5068242;28;20096;-53
2022/02/05 12:46:36;;;;;;;16.85;2.85;;;5.40;99.90;;;;;;5055602;28;20017;-52
2022/02/05 12:49:06;;;;;;;7.03;2.55;;;5.40;99.90;;;;;;5067292;28;20029;-52
2022/02/05 12:51:32;;;;;;;11.52;2.83;;;5.40;99.90;;;;;;5067726;28;20107;-52
2022/02/05 12:54:14;;;;;;;12.15;3.35;;;5.40;99.90;;;;;;5067506;28;20523;-55
2022/02/05 12:56:43;;;;;;;10.65;3.33;;;5.40;99.90;;;;;;5068679;28;20021;-50
2022/02/05 12:59:14;;;;;;;15.68;6.47;;;5.40;99.90;;;;;;5067686;28;20104;-53
2022/02/05 13:02:03;;;;;;;16.60;7.57;;;5.50;99.90;;;;;;5067885;28;20032;-53
2022/02/05 13:04:40;;;;;;;9.80;4.05;;;5.60;99.90;;;;;;5072465;28;20029;-52
2022/02/05 13:07:09;;;;;;;16.05;4.43;;;5.70;99.90;;;;;;5072829;28;20036;-52
2022/02/05 13:09:41;;;;;;;8.20;3.00;;;5.90;99.90;;;;;;5071605;28;20038;-52
2022/02/05 13:12:09;;;;;;;11.50;3.97;;;5.90;99.90;;;;;;5054143;28;20884;-51
2022/02/05 13:14:37;;;;;;;13.48;3.42;;;5.90;99.90;;;;;;5054511;28;20056;-52
2022/02/05 13:17:04;;;;;;;12.18;2.55;;;6.00;99.90;;;;;;5054252;28;20412;-53
2022/02/05 13:19:49;;;;;;;9.77;2.67;;;6.00;99.90;;;;;;5070846;28;20495;-51
2022/02/05 13:36:25;;;;;;;15.50;2.78;;;5.60;99.90;;;;;;5071234;28;20132;-50
2022/02/05 13:44:21;;;;;;;7.80;2.53;;;5.50;99.90;;;;;;5071788;28;20053;-54
2022/02/05 13:47:10;;;;;;;9.70;2.17;;;5.60;99.90;;;;;;5070578;28;20019;-52
2022/02/05 13:49:37;;;;;;;10.82;2.60;;;5.60;99.90;;;;;;5070663;28;20077;-51
2022/02/05 13:52:14;;;;;;;8.13;2.60;;;5.60;99.90;;;;;;5070724;28;20056;-51
2022/02/05 13:54:42;;;;;;;8.63;2.70;;;5.60;99.90;;;;;;5071140;28;20602;-51
2022/02/05 13:57:12;;;;;;;12.20;2.55;;;5.60;99.90;;;;;;5070038;28;20029;-52
2022/02/05 13:59:38;;;;;;;15.43;2.85;;;5.60;99.90;;;;;;5070725;28;20085;-53
2022/02/05 14:02:13;;;;;;;7.70;2.42;;;5.60;99.90;;;;;;5070603;28;20466;-51
2022/02/05 14:04:38;;;;;;;16.33;2.95;;;5.60;99.90;;;;;;5087956;22;20434;-52
2022/02/05 14:07:04;;;;;;;9.57;1.75;;;5.60;99.90;;;;;;5099330;28;20040;-55
2022/02/05 14:09:34;;;;;;;8.80;2.72;;;5.60;99.90;;;;;;5080681;28;20499;-53
2022/02/05 14:12:19;;;;;;;12.52;3.42;;;5.50;99.90;;;;;;5099691;28;20399;-54
2022/02/05 14:15:00;;;;;;;10.45;2.78;;;5.50;99.90;;;;;;5099257;28;20451;-54
2022/02/05 14:17:26;;;;;;;10.85;2.60;;;5.50;99.90;;;;;;5100472;28;20027;-53
2022/02/05 14:20:08;;;;;;;9.35;2.53;;;5.40;99.90;;;;;;5100344;28;20024;-50
2022/02/05 14:22:37;;;;;;;6.50;1.80;;;5.40;99.90;;;;;;5100381;28;20035;-51
2022/02/05 14:25:16;;;;;;;9.40;2.60;;;5.40;99.90;;;;;;5100118;28;20065;-52
2022/02/05 14:28:04;;;;;;;10.25;2.17;;;5.40;99.90;;;;;;5065981;28;20020;-50
2022/02/05 14:30:31;;;;;;;11.27;1.77;;;5.40;99.90;;;;;;5099725;28;20451;-55
2022/02/05 14:32:59;;;;;;;7.70;1.95;;;5.40;99.90;;;;;;5099013;28;20015;-54
2022/02/05 14:41:03;;;;;;;6.85;1.50;;;5.40;99.90;;;;;;5099488;28;20636;-49
2022/02/05 14:43:29;;;;;;;5.50;2.72;;;5.40;99.90;;;;;;5100517;28;20028;-58
2022/02/05 14:45:55;;;;;;;10.27;2.00;;;5.40;99.90;;;;;;5099961;28;20059;-51
2022/02/05 14:48:20;;;;;;;7.43;2.15;;;5.40;99.90;;;;;;5081754;28;20055;-57
2022/02/05 14:50:46;;;;;;;8.05;2.03;;;5.40;99.90;;;;;;5099872;28;20020;-55
2022/02/05 14:53:12;;;;;;;9.57;2.67;;;5.40;99.90;;;;;;5099895;28;20103;-53
2022/02/05 14:55:38;;;;;;;9.13;1.80;;;5.40;99.90;;;;;;5099757;28;20488;-56
2022/02/05 14:58:03;;;;;;;7.10;2.30;;;5.30;99.90;;;;;;5099598;28;20620;-57
2022/02/05 15:00:29;;;;;;;12.07;3.17;;;5.40;99.90;;;;;;5099440;28;20047;-52
2022/02/05 15:02:54;;;;;;;7.90;2.33;;;5.30;99.90;;;;;;5064796;28;20114;-54
2022/02/05 15:05:22;;;;;;;9.77;2.58;;;5.30;99.90;;;;;;5098920;28;20062;-57
2022/02/05 15:07:47;;;;;;;7.10;2.38;;;5.30;99.90;;;;;;5099462;28;20431;-56
2022/02/05 15:10:17;;;;;;;7.60;2.65;;;5.30;99.90;;;;;;5099346;28;20055;-54
2022/02/05 15:12:43;;;;;;;4.03;1.98;;;5.30;99.90;;;;;;5098943;28;20031;-55
2022/02/05 15:15:15;;;;;;;5.40;1.85;;;5.20;99.90;;;;;;5097987;28;20028;-54
2022/02/05 15:17:43;;;;;;;8.32;2.25;;;5.20;99.90;;;;;;5081223;28;20030;-53
2022/02/05 15:20:15;;;;;;;6.35;2.47;;;5.20;99.90;;;;;;5098129;28;20020;-54
2022/02/05 15:22:43;;;;;;;9.30;2.90;;;5.20;99.90;;;;;;5099080;28;20107;-56
2022/02/05 15:25:12;;;;;;;7.30;2.00;;;5.20;99.90;;;;;;5098371;28;20015;-55
2022/02/05 15:27:38;;;;;;;4.80;1.85;;;5.20;99.90;;;;;;5098285;28;20115;-54
2022/02/05 15:30:08;;;;;;;9.93;2.67;;;5.20;99.90;;;;;;5098552;28;20524;-52
2022/02/05 15:32:34;;;;;;;7.47;1.90;;;5.20;99.90;;;;;;5097359;28;20091;-51
2022/02/05 15:34:59;;;;;;;9.93;2.45;;;5.20;99.90;;;;;;5098787;28;20024;-54
2022/02/05 15:37:26;;;;;;;8.85;2.80;;;5.20;99.90;;;;;;5098243;28;20074;-54
2022/02/05 15:40:12;;;;;;;7.00;2.15;;;5.10;99.90;;;;;;5098029;28;20392;-53
2022/02/05 15:45:21;;;;;;;5.00;1.67;;;5.10;99.90;;;;;;5098070;28;20030;-55
2022/02/05 15:47:47;;;;;;;9.45;2.60;;;5.10;99.90;;;;;;5098960;28;20023;-54
2022/02/05 15:50:13;;;;;;;9.95;3.10;;;5.10;99.90;;;;;;5098903;28;20023;-51
2022/02/05 15:52:39;;;;;;;10.50;2.97;;;5.10;99.90;;;;;;5098270;28;20653;-53
2022/02/05 15:55:06;;;;;;;4.93;1.50;;;5.00;99.90;;;;;;5095492;28;20024;-51
2022/02/05 15:57:58;;;;;;;4.93;1.85;;;5.00;99.90;;;;;;5080069;28;20035;-54
2022/02/05 16:00:27;;;;;;;6.35;2.53;;;5.00;99.90;;;;;;5098309;28;20095;-51
2022/02/05 16:02:56;;;;;;;10.00;2.08;;;4.90;99.90;;;;;;5098005;28;20019;-55
2022/02/05 16:05:21;;;;;;;5.88;2.22;;;4.90;99.90;;;;;;5097202;28;20057;-57
2022/02/05 16:07:47;;;;;;;6.05;1.67;;;5.00;99.90;;;;;;5098060;28;20515;-53
2022/02/05 16:10:13;;;;;;;9.02;2.47;;;4.90;99.90;;;;;;5097172;28;20019;-50
2022/02/05 16:12:40;;;;;;;4.93;1.92;;;4.90;99.90;;;;;;5098045;28;20023;-53
2022/02/05 16:15:06;;;;;;;4.80;2.28;;;4.90;99.90;;;;;;5097839;28;20419;-60
2022/02/05 16:17:31;;;;;;;5.63;2.22;;;4.90;99.90;;;;;;5097742;28;20020;-52
2022/02/05 16:19:57;;;;;;;7.70;1.75;;;4.90;99.90;;;;;;5098140;28;20451;-53
2022/02/05 16:22:22;;;;;;;4.50;1.88;;;4.90;99.90;;;;;;5098219;28;20040;-53
2022/02/05 16:24:48;;;;;;;12.75;2.28;;;4.90;99.90;;;;;;5078414;28;20020;-50
2022/02/05 16:27:13;;;;;;;5.18;2.08;;;4.80;99.90;;;;;;5096906;28;20035;-52
2022/02/05 16:29:40;;;;;;;7.82;1.95;;;4.80;99.90;;;;;;5096872;28;20051;-51
2022/02/05 16:32:07;;;;;;;4.50;2.03;;;4.80;99.90;;;;;;5097369;28;20138;-55
2022/02/05 16:34:41;;;;;;;12.65;2.30;;;4.80;99.90;;;;;;5096506;28;20047;-52
2022/02/05 16:37:08;;;;;;;8.52;2.13;;;4.80;99.90;;;;;;5097081;28;20024;-54
2022/02/05 16:39:38;;;;;;;7.75;2.05;;;4.80;99.90;;;;;;5101134;28;20063;-52